This is the latest recevied weather packets stored in our database for station/object K1BWE-1. If no packets are shown the sender has not sent any weather packets the latest 10 day(s).
| Time | Temp. | Humidity | Pressure | Rain* | Wind** | Luminosity | Snow |
|---|---|---|---|---|---|---|---|
| 1777864101 | 23.89° C | 20% | 1013.1 hPa | 0 mm | - | 0 W/m² | - |
| 1777847733 | 31.67° C | 19% | 1012.2 hPa | 0 mm | - | 524 W/m² | - |
| 1777847428 | 31.67° C | 18% | 1012 hPa | 0 mm | - | 524 W/m² | - |
| 1777847126 | 31.67° C | 21% | 1012 hPa | 0 mm | - | 488 W/m² | - |
| 1777844705 | 28.89° C | 28% | 1012.8 hPa | 0 mm | - | 335 W/m² | - |
| 1777844100 | 28.89° C | 26% | 1013 hPa | 0 mm | - | 333 W/m² | - |
| 1777839860 | 28.33° C | 25% | 1013.8 hPa | 0 mm | - | 293 W/m² | - |
| 1777838042 | 28.33° C | 26% | 1014.1 hPa | 0 mm | - | 271 W/m² | - |
| 1777837435 | 28.33° C | 26% | 1014.1 hPa | 0 mm | - | 278 W/m² | - |
| 1777837131 | 28.89° C | 27% | 1014.3 hPa | 0 mm | - | 291 W/m² | - |
| 1777836219 | 28.33° C | 24% | 1014.3 hPa | 0 mm | - | 366 W/m² | - |
| 1777835612 | 28.33° C | 26% | 1014.5 hPa | 0 mm | - | 300 W/m² | - |
| 1777835309 | 28.33° C | 25% | 1014.4 hPa | 0 mm | - | 279 W/m² | - |
| 1777834399 | 28.33° C | 26% | 1014.5 hPa | 0 mm | - | 327 W/m² | - |
| 1777833791 | 28.33° C | 28% | 1015 hPa | 0 mm | - | 341 W/m² | - |
| 1777833184 | 27.78° C | 30% | 1015 hPa | 0 mm | - | 325 W/m² | - |
| 1777832880 | 28.33° C | 27% | 1015 hPa | 0 mm | - | 344 W/m² | - |
| 1777828638 | 26.67° C | 31% | 1016.1 hPa | 0 mm | - | 282 W/m² | - |
| 1777827426 | 27.22° C | 31% | 1016 hPa | 0 mm | - | 355 W/m² | - |
| 1777827123 | 26.67° C | 30% | 1016 hPa | 0 mm | - | 480 W/m² | - |
| 1777826819 | 27.22° C | 31% | 1016.1 hPa | 0 mm | - | 570 W/m² | - |
| 1777825910 | 27.22° C | 32% | 1016 hPa | 0 mm | - | 399 W/m² | - |
| 1777825607 | 26.67° C | 34% | 1015.8 hPa | 0 mm | - | 421 W/m² | - |
| 1777825305 | 26.67° C | 31% | 1016 hPa | 0 mm | - | 423 W/m² | - |
| 1777825002 | 26.11° C | 31% | 1015.9 hPa | 0 mm | - | 409 W/m² | - |
* Rain latest hour (hover to see other rain measurements)
** Current wind speed in m/s (hover to see current wind gust speed)